Klemme/'s Corner

Nearby METAR Reports

 

KI67 - Harrison, Ohio, USA
Distance from station: ESE 14mi, 23km
Updated: Fri, 28-Jan-2022 8:55pm EST
Overcast
Overcast
 Wind from N
Wind: N 7 mph , 11 km/h
Temperature: 18°F , -8°C
Wind Chill: 9°F , -13°C
Dew Point: 10°F , -12°C
Humidity: 73%
Barometer: 30.26 inHg , 1024.7 hPa
Clouds: Overcast
Visibility: 10 miles , 16 km
Cloud details: Overcast 3000 ft
2022/01/29 01:55 KI67 290155Z AUTO 36006KT 10SM OVC030 M08/M12 A3026 RMK AO1
KHAO - Hamilton, Ohio, USA
Distance from station: E 26mi, 42km
Updated: Fri, 28-Jan-2022 8:53pm EST
Mostly cloudy
Mostly cloudy
 Wind from N
Wind: N 8 mph , 13 km/h
Temperature: 16°F , -9°C
Wind Chill: 5°F , -15°C
Dew Point: 9°F , -13°C
Humidity: 73%
Barometer: 30.26 inHg , 1024.7 hPa
Clouds: Mostly cloudy
Visibility: 10 miles , 16 km
Cloud details: Mostly cloudy 3200 ft
2022/01/29 01:53 KHAO 290153Z AUTO 35007KT 10SM BKN032 M09/M13 A3026 RMK AO2 SLP255 T10941128
 
KCVG - Covington, Kentucky, USA
Distance from station: SE 28mi, 45km
Updated: Fri, 28-Jan-2022 8:52pm EST
Overcast
Overcast
 Wind from NNW
Wind: NNW 13 mph , 20 km/h
Temperature: 16°F , -9°C
Wind Chill: 2°F , -17°C
Dew Point: 10°F , -12°C
Humidity: 79%
Barometer: 30.21 inHg , 1023 hPa
Clouds: Overcast
Visibility: 10 miles , 16 km
Cloud details: Mostly cloudy 2700 ft
Overcast 6000 ft
2022/01/29 01:52 KCVG 290152Z 34011KT 10SM BKN027 OVC060 M09/M12 A3021 RMK AO2 SLP239 SNE24 BINOVC P0000 T10891122 $
KRID - Richmond, Indiana, USA
Distance from station: NNE 29mi, 46km
Updated: Fri, 28-Jan-2022 8:55pm EST
Light Snow
Light Snow
 Wind from N
Wind: N 7 mph , 11 km/h
Temperature: 12°F , -11°C
Wind Chill: 1°F , -17°C
Dew Point: 12°F , -11°C
Humidity: 100%
Barometer: 30.23 inHg , 1023.7 hPa
Summary: Light Snow
Visibility: 10 miles , 16 km
2022/01/29 01:55 KRID 290155Z AUTO 36006KT 10SM -SN M11/M11 A3023 RMK AO2
 
KMWO - Middletown/Hook, Ohio, USA
Distance from station: ENE 35mi, 56km
Updated: Fri, 28-Jan-2022 8:35pm EST
Overcast
Overcast
 Wind from NNE
Wind: NNE 10 mph , 17 km/h
Temperature: 16°F , -9°C
Wind Chill: 4°F , -16°C
Dew Point: 10°F , -12°C
Humidity: 79%
Barometer: 30.25 inHg , 1024.4 hPa
Clouds: Overcast
Visibility: 10 miles , 16 km
Cloud details: Overcast 2900 ft
2022/01/29 01:35 KMWO 290135Z AUTO 03009KT 10SM OVC029 M09/M12 A3025 RMK AO2 T10881120
KLUK - Cincinnat/Lunken, Ohio, USA
Distance from station: ESE 36mi, 58km
Updated: Fri, 28-Jan-2022 8:53pm EST
Overcast
Overcast
 Wind from N
Wind: N 8 mph , 13 km/h
Temperature: 18°F , -8°C
Wind Chill: 8°F , -13°C
Dew Point: 12°F , -11°C
Humidity: 79%
Barometer: 30.26 inHg , 1024.7 hPa
Clouds: Overcast
Visibility: 10 miles , 16 km
Cloud details: Mostly cloudy 2300 ft
Overcast 3200 ft
2022/01/29 01:53 KLUK 290153Z 35007KT 10SM BKN023 OVC032 M08/M11 A3026 RMK AO2 SLP252 T10781111
 
KMGY - Dayton, Ohio, USA
Distance from station: ENE 45mi, 72km
Updated: Fri, 28-Jan-2022 8:53pm EST
Overcast
Overcast
 Wind from N
Wind: N 8 mph , 13 km/h
Temperature: 18°F , -8°C
Wind Chill: 8°F , -13°C
Dew Point: 10°F , -12°C
Humidity: 73%
Barometer: 30.20 inHg , 1022.7 hPa
Clouds: Overcast
Visibility: 10 miles , 16 km
Cloud details: Mostly cloudy 1500 ft
Overcast 2900 ft
2022/01/29 01:53 KMGY 290153Z AUTO 36007KT 10SM BKN015 OVC029 M08/M12 A3020 RMK AO2 UPB16E48SNE09 SLP240 P0000 T10831117
KGEZ - Shelbyville, Indiana, USA
Distance from station: WNW 45mi, 73km
Updated: Fri, 28-Jan-2022 8:53pm EST
Partly cloudy
Partly cloudy
 Wind from NNW
Wind: NNW 7 mph , 11 km/h
Temperature: 9°F , -13°C
Wind Chill: -2°F , -19°C
Dew Point: 1°F , -17°C
Humidity: 72%
Barometer: 30.28 inHg , 1025.4 hPa
Clouds: Partly cloudy
Visibility: 10 miles , 16 km
Cloud details: Partly cloudy 3200 ft
2022/01/29 01:53 KGEZ 290153Z AUTO 34006KT 10SM SCT032 M13/M17 A3028 RMK AO2 SLP268 T11281172
 
KI69 - Batavia, Ohio, USA
Distance from station: ESE 46mi, 74km
Updated: Fri, 28-Jan-2022 8:55pm EST
Overcast
Overcast
 Wind from N
Wind: N 8 mph , 13 km/h
Temperature: 18°F , -8°C
Wind Chill: 8°F , -13°C
Dew Point: 14°F , -10°C
Humidity: 86%
Barometer: 30.21 inHg , 1023 hPa
Clouds: Overcast
Visibility: 10 miles , 16 km
Cloud details: Mostly cloudy 1700 ft
Overcast 2200 ft
2022/01/29 01:55 KI69 290155Z AUTO 35007KT 10SM BKN017 OVC022 M08/M10 A3021 RMK AO2 T10841104
KIMS - Madison, Indiana, USA
Distance from station: SSW 48mi, 76km
Updated: Wed, 26-Jan-2022 7:15am EST
NOT Current
Clear
Clear
 Wind from calm
Wind: Calm
Temperature: 7°F , -14°C
Dew Point: 1°F , -17°C
Humidity: 78%
Barometer: 30.49 inHg , 1032.5 hPa
Clouds: Clear
Visibility: 10 miles , 16 km
2022/01/26 12:15 KIMS 261215Z AUTO 00000KT 10SM CLR M14/M17 A3049 RMK AO2
 
KBAK - Columbus/Balkala, Indiana, USA
Distance from station: W 48mi, 78km
Updated: Fri, 28-Jan-2022 7:45pm EST
Clear
Clear
 Wind from NNW
Wind: NNW 12 mph , 19 km/h
Temperature: 14°F , -10°C
Wind Chill: 0°F , -18°C
Dew Point: 3°F , -16°C
Humidity: 62%
Barometer: 30.29 inHg , 1025.7 hPa
Clouds: Clear
Visibility: 10 miles , 16 km
2022/01/29 00:45 KBAK 290045Z 34010KT 10SM CLR M10/M16 A3029